createdAt,value
2019-01-21T00:00:03.075Z,19.93
2019-01-21T00:02:31.050Z,19.03
2019-01-21T00:04:58.998Z,19.23
2019-01-21T00:07:28.038Z,17.73
2019-01-21T00:09:55.793Z,18.60
2019-01-21T00:12:23.444Z,18.83
2019-01-21T00:14:51.174Z,18.00
2019-01-21T00:17:22.403Z,20.10
2019-01-21T00:19:48.756Z,19.00
2019-01-21T00:22:16.734Z,18.70
2019-01-21T00:24:44.365Z,16.93
2019-01-21T00:27:12.362Z,20.50
2019-01-21T00:29:40.346Z,19.33
2019-01-21T00:32:08.303Z,19.53
2019-01-21T00:34:36.274Z,19.53
2019-01-21T00:37:04.246Z,21.17
2019-01-21T00:39:32.212Z,20.27
2019-01-21T00:42:00.181Z,18.93
2019-01-21T00:44:27.823Z,20.13
2019-01-21T00:46:55.725Z,19.20
2019-01-21T00:49:23.687Z,21.60
2019-01-21T00:51:51.650Z,21.37
2019-01-21T00:54:19.620Z,21.40
2019-01-21T00:56:47.584Z,22.23
2019-01-21T00:59:15.231Z,19.23
2019-01-21T01:01:42.874Z,19.07
2019-01-21T01:04:10.778Z,19.60
2019-01-21T01:06:38.423Z,18.47
2019-01-21T01:09:06.410Z,19.80
2019-01-21T01:11:34.378Z,19.00
2019-01-21T01:14:02.662Z,18.30
2019-01-21T01:16:30.297Z,18.87
2019-01-21T01:18:58.285Z,18.23
2019-01-21T01:21:26.264Z,18.20
2019-01-21T01:23:54.227Z,18.37
2019-01-21T01:26:22.197Z,18.80
2019-01-21T01:28:49.841Z,17.60
2019-01-21T01:31:17.477Z,16.53
2019-01-21T01:33:45.393Z,18.20
2019-01-21T01:36:13.030Z,17.50
2019-01-21T01:38:40.671Z,18.90
2019-01-21T01:41:08.582Z,18.73
2019-01-21T01:43:36.549Z,17.10
2019-01-21T01:46:04.523Z,17.20
2019-01-21T01:48:32.509Z,17.40
2019-01-21T01:51:00.144Z,18.13
2019-01-21T01:53:28.158Z,16.90
2019-01-21T01:55:56.090Z,17.23
2019-01-21T01:58:24.066Z,16.93
2019-01-21T02:00:51.717Z,16.43
2019-01-21T02:03:19.696Z,16.50
2019-01-21T02:05:47.331Z,15.67
2019-01-21T02:08:15.634Z,15.90
2019-01-21T02:10:43.604Z,16.77
2019-01-21T02:13:11.246Z,16.60
2019-01-21T02:15:38.883Z,15.83
2019-01-21T02:18:06.801Z,16.07
2019-01-21T02:20:34.766Z,15.43
2019-01-21T02:23:02.732Z,15.03
2019-01-21T02:25:30.384Z,15.77
2019-01-21T02:27:58.367Z,15.27
2019-01-21T02:30:26.088Z,17.30
2019-01-21T02:32:53.723Z,22.00
2019-01-21T02:35:21.968Z,18.33
2019-01-21T02:37:49.939Z,19.27
2019-01-21T02:40:17.909Z,17.60
2019-01-21T02:42:45.874Z,17.97
2019-01-21T02:45:13.854Z,17.53
2019-01-21T02:47:41.487Z,16.73
2019-01-21T02:50:09.413Z,17.80
2019-01-21T02:52:37.048Z,18.83
2019-01-21T02:55:05.028Z,18.30
2019-01-21T02:57:32.991Z,18.00
2019-01-21T03:00:00.957Z,16.37
2019-01-21T03:02:28.919Z,16.73
2019-01-21T03:04:56.906Z,18.17
2019-01-21T03:07:24.855Z,16.73
2019-01-21T03:09:52.492Z,17.20
2019-01-21T03:12:20.127Z,16.97
2019-01-21T03:14:48.053Z,16.80
2019-01-21T03:17:16.018Z,16.53
2019-01-21T03:19:43.991Z,16.93
2019-01-21T03:22:11.620Z,16.87
2019-01-21T03:24:39.620Z,16.53
2019-01-21T03:27:07.254Z,15.97
2019-01-21T03:29:34.890Z,15.73
2019-01-21T03:32:02.906Z,15.70
2019-01-21T03:34:30.550Z,16.20
2019-01-21T03:36:58.454Z,15.67
2019-01-21T03:39:26.086Z,17.37
2019-01-21T03:41:54.074Z,18.37
2019-01-21T03:44:22.044Z,16.73
2019-01-21T03:46:50.115Z,16.60
2019-01-21T03:49:17.762Z,15.00
2019-01-21T03:51:45.652Z,16.67
2019-01-21T03:54:13.300Z,16.97
2019-01-21T03:56:40.936Z,17.23
2019-01-21T03:59:08.843Z,16.93
2019-01-21T04:01:36.472Z,17.00
2019-01-21T04:04:04.119Z,16.17
2019-01-21T04:06:32.030Z,16.43
2019-01-21T04:09:00.005Z,16.93
2019-01-21T04:11:27.635Z,15.97
2019-01-21T04:13:55.344Z,15.90
2019-01-21T04:16:22.998Z,16.93
2019-01-21T04:18:50.959Z,16.73
2019-01-21T04:21:18.613Z,15.87
2019-01-21T04:23:46.589Z,16.33
2019-01-21T04:26:14.564Z,17.13
2019-01-21T04:28:42.836Z,16.33
2019-01-21T04:31:10.803Z,15.40
2019-01-21T04:33:38.774Z,16.87
2019-01-21T04:36:06.758Z,16.23
2019-01-21T04:38:34.394Z,15.97
2019-01-21T04:41:02.375Z,15.10
2019-01-21T04:43:30.445Z,15.97
2019-01-21T04:45:58.417Z,14.97
2019-01-21T04:48:32.852Z,15.93
2019-01-21T04:50:55.747Z,16.83
2019-01-21T04:53:23.660Z,15.60
2019-01-21T04:55:51.628Z,15.30
2019-01-21T04:58:19.600Z,14.23
2019-01-21T05:00:47.568Z,15.57
2019-01-21T05:03:15.562Z,16.10
2019-01-21T05:05:43.508Z,15.53
2019-01-21T05:08:11.476Z,14.83
2019-01-21T05:10:39.654Z,14.33
2019-01-21T05:13:07.617Z,14.67
2019-01-21T05:15:35.264Z,14.57
2019-01-21T05:18:02.904Z,14.80
2019-01-21T05:20:30.813Z,15.03
2019-01-21T05:22:58.446Z,14.50
2019-01-21T05:25:26.776Z,15.77
2019-01-21T05:27:54.720Z,15.93
2019-01-21T05:30:22.361Z,14.47
2019-01-21T05:32:49.996Z,15.73
2019-01-21T05:35:17.911Z,15.47
2019-01-21T05:37:45.897Z,15.80
2019-01-21T05:40:14.159Z,15.83
2019-01-21T05:42:42.145Z,14.50
2019-01-21T05:45:10.101Z,15.47
2019-01-21T05:47:38.086Z,14.90
2019-01-21T05:50:06.045Z,16.77
2019-01-21T05:52:33.670Z,17.33
2019-01-21T05:55:01.675Z,16.97
2019-01-21T05:57:29.638Z,15.23
2019-01-21T05:59:57.610Z,15.40
2019-01-21T06:02:25.586Z,15.33
2019-01-21T06:04:53.546Z,16.00
2019-01-21T06:07:21.517Z,14.47
2019-01-21T06:09:49.455Z,15.73
2019-01-21T06:12:17.099Z,16.23
2019-01-21T06:14:45.015Z,15.13
2019-01-21T06:17:12.658Z,15.97
2019-01-21T06:19:40.646Z,16.07
2019-01-21T06:22:08.619Z,16.63
2019-01-21T06:24:36.252Z,16.13
2019-01-21T06:27:04.247Z,13.67
2019-01-21T06:29:32.220Z,15.50
2019-01-21T06:32:00.184Z,15.33
2019-01-21T06:34:27.819Z,16.77
2019-01-21T06:36:55.459Z,16.20
2019-01-21T06:39:23.100Z,15.87
2019-01-21T06:41:50.743Z,15.53
2019-01-21T06:44:18.702Z,16.77
2019-01-21T06:46:46.677Z,15.57
2019-01-21T06:49:14.647Z,16.57
2019-01-21T06:51:42.616Z,15.77
2019-01-21T06:54:10.249Z,15.30
2019-01-21T06:56:38.142Z,16.03
2019-01-21T06:59:05.779Z,15.77
2019-01-21T07:01:33.497Z,16.07
2019-01-21T07:04:01.439Z,16.03
2019-01-21T07:06:29.092Z,16.03
2019-01-21T07:08:57.070Z,16.27
2019-01-21T07:11:25.038Z,15.27
2019-01-21T07:13:53.008Z,15.47
2019-01-21T07:16:21.288Z,16.50
2019-01-21T07:18:49.255Z,15.93
2019-01-21T07:21:17.225Z,15.63
2019-01-21T07:23:44.855Z,15.33
2019-01-21T07:26:13.317Z,15.33
2019-01-21T07:28:41.237Z,15.27
2019-01-21T07:31:09.202Z,14.80
2019-01-21T07:33:37.179Z,15.27
2019-01-21T07:36:05.149Z,16.37
2019-01-21T07:38:33.113Z,14.60
2019-01-21T07:41:00.759Z,15.93
2019-01-21T07:43:28.646Z,16.43
2019-01-21T07:45:56.613Z,15.40
2019-01-21T07:48:24.585Z,15.87
2019-01-21T07:50:52.551Z,15.50
2019-01-21T07:53:20.181Z,15.67
2019-01-21T07:55:47.819Z,16.13
2019-01-21T07:58:15.748Z,14.50
2019-01-21T08:00:43.713Z,16.30
2019-01-21T08:03:11.365Z,16.17
2019-01-21T08:05:39.350Z,17.60
2019-01-21T08:08:07.317Z,16.43
2019-01-21T08:10:35.287Z,17.57
2019-01-21T08:13:03.260Z,15.40
2019-01-21T08:15:31.535Z,15.87
2019-01-21T08:17:59.180Z,15.40
2019-01-21T08:20:27.177Z,18.00
2019-01-21T08:22:55.140Z,15.60
2019-01-21T08:25:22.770Z,17.17
2019-01-21T08:27:50.762Z,17.00
2019-01-21T08:30:18.397Z,16.93
2019-01-21T08:32:46.395Z,16.33
2019-01-21T08:35:14.368Z,17.90
2019-01-21T08:37:42.357Z,18.13
2019-01-21T08:40:10.307Z,19.33
2019-01-21T08:42:38.279Z,18.67
2019-01-21T08:45:06.241Z,19.13
2019-01-21T08:47:34.218Z,19.33
2019-01-21T08:50:02.188Z,20.07
2019-01-21T08:52:30.165Z,20.13
2019-01-21T08:54:58.122Z,19.77
2019-01-21T08:57:26.094Z,18.60
2019-01-21T08:59:53.729Z,20.10
2019-01-21T09:02:21.723Z,18.27
2019-01-21T09:04:49.700Z,18.50
2019-01-21T09:07:17.344Z,18.63
2019-01-21T09:09:44.973Z,20.33
2019-01-21T09:12:12.987Z,20.67
2019-01-21T09:14:40.958Z,19.97
2019-01-21T09:17:08.927Z,19.70
2019-01-21T09:19:37.339Z,18.67
2019-01-21T09:22:05.488Z,20.47
2019-01-21T09:24:33.450Z,18.80
2019-01-21T09:27:01.418Z,20.13
2019-01-21T09:29:29.389Z,19.27
2019-01-21T09:31:57.361Z,20.60
2019-01-21T09:34:24.990Z,20.90
2019-01-21T09:36:52.902Z,22.57
2019-01-21T09:39:20.548Z,22.53
2019-01-21T09:41:48.177Z,23.20
2019-01-21T09:44:16.091Z,23.50
2019-01-21T09:46:43.885Z,22.70
2019-01-21T09:49:11.826Z,25.23
2019-01-21T09:51:39.885Z,23.43
2019-01-21T09:54:07.863Z,23.43
2019-01-21T09:56:35.498Z,23.67
2019-01-21T09:59:03.490Z,25.63
2019-01-21T10:01:31.463Z,22.73
2019-01-21T10:03:59.137Z,22.80
2019-01-21T10:06:27.094Z,23.13
2019-01-21T10:08:54.755Z,23.93
2019-01-21T10:11:22.456Z,24.87
2019-01-21T10:13:50.383Z,22.43
2019-01-21T10:16:18.356Z,24.00
2019-01-21T10:18:46.328Z,24.83
2019-01-21T10:21:14.310Z,25.20
2019-01-21T10:23:41.957Z,23.07
2019-01-21T10:26:09.603Z,25.20
2019-01-21T10:28:37.247Z,23.97
2019-01-21T10:31:04.886Z,26.33
2019-01-21T10:33:34.115Z,25.50
2019-01-21T10:36:02.111Z,24.63
2019-01-21T10:38:29.756Z,24.37
2019-01-21T10:40:57.742Z,22.93
2019-01-21T10:43:25.819Z,23.17
2019-01-21T10:45:53.787Z,25.50
2019-01-21T10:48:21.811Z,23.77
2019-01-21T10:50:49.456Z,22.97
2019-01-21T10:53:17.132Z,22.53
2019-01-21T10:55:45.052Z,23.63
2019-01-21T10:58:13.022Z,25.47
2019-01-21T11:00:40.664Z,23.70
2019-01-21T11:03:08.309Z,21.67
2019-01-21T11:05:35.947Z,22.53
2019-01-21T11:08:03.589Z,23.50
2019-01-21T11:10:31.236Z,23.07
2019-01-21T11:12:59.199Z,24.30
2019-01-21T11:15:27.171Z,22.57
2019-01-21T11:17:54.817Z,24.73
2019-01-21T11:20:22.820Z,22.00
2019-01-21T11:22:50.774Z,22.73
2019-01-21T11:25:18.737Z,21.63
2019-01-21T11:27:46.707Z,23.40
2019-01-21T11:30:14.683Z,23.17
2019-01-21T11:32:42.648Z,22.77
2019-01-21T11:35:10.290Z,22.77
2019-01-21T11:37:38.020Z,23.27
2019-01-21T11:40:05.958Z,23.03
2019-01-21T11:42:33.914Z,22.77
2019-01-21T11:45:01.545Z,23.63
2019-01-21T11:47:29.542Z,23.33
2019-01-21T11:49:57.188Z,22.50
2019-01-21T11:52:25.191Z,22.47
2019-01-21T11:54:53.146Z,22.47
2019-01-21T11:57:20.782Z,22.37
2019-01-21T11:59:48.425Z,22.60
2019-01-21T12:02:16.337Z,23.50
2019-01-21T12:04:44.001Z,23.57
2019-01-21T12:07:11.647Z,23.33
2019-01-21T12:09:39.291Z,23.17
2019-01-21T12:12:06.926Z,23.27
2019-01-21T12:14:34.854Z,23.70
2019-01-21T12:17:02.824Z,24.30
2019-01-21T12:19:30.810Z,23.80
2019-01-21T12:21:58.766Z,23.50
2019-01-21T12:24:26.777Z,21.67
2019-01-21T12:26:54.820Z,21.40
2019-01-21T12:29:22.772Z,21.23
2019-01-21T12:31:50.745Z,23.70
2019-01-21T12:34:18.720Z,24.27
2019-01-21T12:36:46.363Z,22.57
2019-01-21T12:39:14.349Z,21.53
2019-01-21T12:41:42.313Z,22.70
2019-01-21T12:44:10.288Z,22.40
2019-01-21T12:46:37.931Z,22.33
2019-01-21T12:49:05.646Z,22.33
2019-01-21T12:51:33.587Z,22.80
2019-01-21T12:54:01.547Z,22.60
2019-01-21T12:56:29.518Z,23.13
2019-01-21T12:58:57.151Z,23.70
2019-01-21T13:01:25.152Z,24.57
2019-01-21T13:03:53.121Z,22.70
2019-01-21T13:06:21.091Z,22.50
2019-01-21T13:08:48.741Z,23.90
2019-01-21T13:11:16.722Z,22.63
2019-01-21T13:13:44.692Z,22.63
2019-01-21T13:16:12.659Z,21.67
2019-01-21T13:18:40.304Z,23.43
2019-01-21T13:21:07.946Z,23.53
2019-01-21T13:23:35.857Z,23.47
2019-01-21T13:26:03.495Z,24.27
2019-01-21T13:28:31.487Z,22.70
2019-01-21T13:30:59.460Z,22.57
2019-01-21T13:33:27.427Z,24.13
2019-01-21T13:35:55.393Z,22.90
2019-01-21T13:38:23.369Z,21.40
2019-01-21T13:40:51.330Z,22.50
2019-01-21T13:43:18.967Z,23.83
2019-01-21T13:45:46.862Z,22.50
2019-01-21T13:48:14.499Z,22.77
2019-01-21T13:50:42.146Z,23.90
2019-01-21T13:53:10.055Z,23.50
2019-01-21T13:55:37.716Z,22.23
2019-01-21T13:58:05.359Z,23.63
2019-01-21T14:00:33.000Z,22.93
2019-01-21T14:03:00.924Z,22.97
2019-01-21T14:05:31.091Z,22.43
2019-01-21T14:07:58.176Z,21.90
2019-01-21T14:10:26.147Z,22.33
2019-01-21T14:12:53.818Z,22.47
2019-01-21T14:15:21.454Z,23.83
2019-01-21T14:17:49.337Z,23.90
2019-01-21T14:20:17.290Z,23.40
2019-01-21T14:22:44.936Z,22.43
2019-01-21T14:25:12.838Z,21.90
2019-01-21T14:27:40.471Z,22.30
2019-01-21T14:30:08.111Z,22.00
2019-01-21T14:32:36.139Z,22.33
2019-01-21T14:35:04.103Z,24.20
2019-01-21T14:37:31.732Z,23.33
2019-01-21T14:39:59.378Z,23.83
2019-01-21T14:42:27.299Z,23.43
2019-01-21T14:44:54.938Z,23.93
2019-01-21T14:47:22.933Z,23.67
2019-01-21T14:49:50.578Z,22.13
2019-01-21T14:52:18.562Z,24.73
2019-01-21T14:54:46.568Z,23.70
2019-01-21T14:57:14.525Z,23.13
2019-01-21T14:59:42.470Z,25.27
2019-01-21T15:02:10.112Z,24.23
2019-01-21T15:04:38.043Z,23.90
2019-01-21T15:07:05.670Z,23.07
2019-01-21T15:09:33.458Z,24.30
2019-01-21T15:12:01.510Z,24.13
2019-01-21T15:14:29.170Z,22.50
2019-01-21T15:16:57.150Z,23.40
2019-01-21T15:19:25.113Z,24.23
2019-01-21T15:21:53.103Z,25.13
2019-01-21T15:24:21.073Z,24.87
2019-01-21T15:26:49.003Z,24.20
2019-01-21T15:29:16.992Z,22.70
2019-01-21T15:31:44.698Z,23.97
2019-01-21T15:34:12.519Z,26.93
2019-01-21T15:36:40.486Z,24.63
2019-01-21T15:39:08.203Z,25.17
2019-01-21T15:41:36.111Z,26.30
2019-01-21T15:44:03.820Z,25.87
2019-01-21T15:46:31.490Z,26.47
2019-01-21T15:48:59.402Z,26.23
2019-01-21T15:51:27.393Z,25.13
2019-01-21T15:53:55.341Z,26.47
2019-01-21T15:56:23.315Z,27.33
2019-01-21T15:58:50.958Z,25.97
2019-01-21T16:01:19.046Z,26.50
2019-01-21T16:03:46.681Z,25.90
2019-01-21T16:06:14.676Z,24.90
2019-01-21T16:08:42.323Z,25.27
2019-01-21T16:11:10.319Z,24.73
2019-01-21T16:13:38.283Z,25.23
2019-01-21T16:16:05.925Z,26.57
2019-01-21T16:18:33.910Z,25.83
2019-01-21T16:21:01.891Z,27.60
2019-01-21T16:23:29.851Z,26.17
2019-01-21T16:25:57.816Z,28.67
2019-01-21T16:28:25.453Z,28.87
2019-01-21T16:30:53.104Z,27.23
2019-01-21T16:33:21.024Z,28.23
2019-01-21T16:35:48.980Z,27.57
2019-01-21T16:38:17.829Z,27.50
2019-01-21T16:40:45.760Z,29.23
2019-01-21T16:43:13.720Z,26.00
2019-01-21T16:45:41.388Z,28.97
2019-01-21T16:48:09.446Z,25.70
2019-01-21T16:50:37.416Z,25.27
2019-01-21T16:53:05.382Z,26.60
2019-01-21T16:55:33.098Z,28.37
2019-01-21T16:58:00.738Z,27.77
2019-01-21T17:00:28.677Z,28.17
2019-01-21T17:02:56.649Z,27.10
2019-01-21T17:05:24.365Z,26.67
2019-01-21T17:07:52.278Z,27.80
2019-01-21T17:10:19.921Z,28.07
2019-01-21T17:12:47.684Z,28.53
2019-01-21T17:15:15.694Z,27.23
2019-01-21T17:17:44.387Z,28.20
2019-01-21T17:20:12.090Z,26.00
2019-01-21T17:22:40.010Z,25.60
2019-01-21T17:25:07.967Z,28.10
2019-01-21T17:27:35.934Z,25.03
2019-01-21T17:30:03.901Z,28.13
2019-01-21T17:32:31.554Z,28.40
2019-01-21T17:34:59.536Z,27.10
2019-01-21T17:37:27.510Z,27.37
2019-01-21T17:39:55.485Z,28.00
2019-01-21T17:42:23.442Z,27.27
2019-01-21T17:44:51.441Z,25.77
2019-01-21T17:47:19.093Z,28.20
2019-01-21T17:49:46.726Z,27.47
2019-01-21T17:52:14.380Z,29.00
2019-01-21T17:54:42.374Z,27.90
2019-01-21T17:57:12.010Z,28.40
2019-01-21T17:59:40.154Z,27.97
2019-01-21T18:02:07.803Z,28.20
2019-01-21T18:04:35.800Z,29.30
2019-01-21T18:07:03.752Z,31.67
2019-01-21T18:09:31.399Z,28.50
2019-01-21T18:11:59.052Z,27.93
2019-01-21T18:14:27.362Z,28.20
2019-01-21T18:16:55.325Z,28.10
2019-01-21T18:19:23.296Z,30.77
2019-01-21T18:21:51.268Z,29.43
2019-01-21T18:24:19.236Z,28.77
2019-01-21T18:26:46.877Z,30.97
2019-01-21T18:29:14.513Z,29.80
2019-01-21T18:31:42.424Z,30.63
2019-01-21T18:34:10.396Z,30.30
2019-01-21T18:36:38.367Z,29.93
2019-01-21T18:39:06.338Z,29.30
2019-01-21T18:41:33.984Z,29.23
2019-01-21T18:44:01.621Z,28.43
2019-01-21T18:46:29.527Z,28.27
2019-01-21T18:48:57.180Z,30.53
2019-01-21T18:51:25.158Z,30.80
2019-01-21T18:53:53.138Z,29.13
2019-01-21T18:56:20.793Z,28.97
2019-01-21T18:58:48.758Z,30.43
2019-01-21T19:01:16.409Z,31.67
2019-01-21T19:03:44.048Z,31.20
2019-01-21T19:06:12.054Z,28.50
2019-01-21T19:08:40.025Z,30.67
2019-01-21T19:11:07.998Z,27.80
2019-01-21T19:13:35.637Z,26.53
2019-01-21T19:16:03.626Z,25.97
2019-01-21T19:18:31.593Z,27.37
2019-01-21T19:20:59.234Z,25.90
2019-01-21T19:23:27.226Z,26.50
2019-01-21T19:25:55.214Z,26.33
2019-01-21T19:28:23.165Z,27.10
2019-01-21T19:30:50.809Z,26.03
2019-01-21T19:33:18.805Z,25.47
2019-01-21T19:35:46.768Z,27.20
2019-01-21T19:38:14.423Z,25.53
2019-01-21T19:40:42.061Z,24.63
2019-01-21T19:43:10.062Z,24.23
2019-01-21T19:45:37.721Z,25.00
2019-01-21T19:48:05.375Z,25.90
2019-01-21T19:50:33.360Z,25.53
2019-01-21T19:53:01.330Z,25.07
2019-01-21T19:55:29.300Z,24.77
2019-01-21T19:57:57.268Z,24.33
2019-01-21T20:00:24.915Z,24.33
2019-01-21T20:02:52.902Z,26.70
2019-01-21T20:05:20.869Z,28.63
2019-01-21T20:07:48.844Z,28.20
2019-01-21T20:10:16.803Z,26.37
2019-01-21T20:12:44.780Z,29.30
2019-01-21T20:15:12.750Z,27.07
2019-01-21T20:17:40.471Z,27.40
2019-01-21T20:20:08.379Z,27.87
2019-01-21T20:22:36.365Z,26.70
2019-01-21T20:25:04.329Z,26.47
2019-01-21T20:27:32.314Z,26.23
2019-01-21T20:30:00.259Z,25.27
2019-01-21T20:32:27.910Z,25.03
2019-01-21T20:34:55.558Z,25.67
2019-01-21T20:37:23.559Z,24.27
2019-01-21T20:39:51.715Z,27.37
2019-01-21T20:42:19.706Z,26.73
2019-01-21T20:44:47.405Z,30.13
2019-01-21T20:47:15.428Z,31.00
2019-01-21T20:49:43.145Z,32.90
2019-01-21T20:52:14.180Z,33.37
2019-01-21T20:54:40.773Z,31.43
2019-01-21T20:57:08.745Z,26.47
2019-01-21T20:59:36.721Z,27.83
2019-01-21T21:02:04.690Z,27.17
2019-01-21T21:04:32.669Z,28.17
2019-01-21T21:07:00.617Z,25.93
2019-01-21T21:09:28.260Z,25.87
2019-01-21T21:11:55.907Z,26.93
2019-01-21T21:14:23.557Z,25.90
2019-01-21T21:16:51.474Z,25.10
2019-01-21T21:19:19.445Z,25.90
2019-01-21T21:21:47.088Z,26.07
2019-01-21T21:24:15.093Z,24.80
2019-01-21T21:26:43.046Z,26.23
2019-01-21T21:29:11.035Z,24.43
2019-01-21T21:31:38.986Z,24.37
2019-01-21T21:34:06.972Z,23.13
2019-01-21T21:36:35.234Z,25.20
2019-01-21T21:39:04.005Z,24.10
2019-01-21T21:41:32.010Z,23.83
2019-01-21T21:43:59.982Z,23.83
2019-01-21T21:46:27.926Z,26.30
2019-01-21T21:48:55.573Z,24.00
2019-01-21T21:51:23.215Z,25.90
2019-01-21T21:53:51.117Z,26.67
2019-01-21T21:56:19.093Z,23.37
2019-01-21T21:58:46.744Z,26.53
2019-01-21T22:01:14.432Z,25.23
2019-01-21T22:03:42.400Z,25.33
2019-01-21T22:06:10.373Z,25.90
2019-01-21T22:08:38.019Z,26.13
2019-01-21T22:11:05.659Z,24.03
2019-01-21T22:13:33.368Z,24.83
2019-01-21T22:16:01.000Z,25.83
2019-01-21T22:18:29.198Z,26.40
2019-01-21T22:20:57.144Z,23.80
2019-01-21T22:23:24.794Z,24.93
2019-01-21T22:25:52.781Z,25.23
2019-01-21T22:28:20.754Z,26.80
2019-01-21T22:30:48.718Z,25.73
2019-01-21T22:33:16.896Z,24.50
2019-01-21T22:35:44.865Z,26.77
2019-01-21T22:38:12.836Z,25.07
2019-01-21T22:40:40.800Z,24.03
2019-01-21T22:43:08.447Z,24.60
2019-01-21T22:45:36.092Z,24.00
2019-01-21T22:48:04.115Z,24.20
2019-01-21T22:50:32.066Z,26.40
2019-01-21T22:53:00.041Z,25.97
2019-01-21T22:55:28.023Z,27.37
2019-01-21T22:57:55.975Z,24.17
2019-01-21T23:00:23.903Z,24.63
2019-01-21T23:02:51.548Z,25.53
2019-01-21T23:05:19.479Z,25.23
2019-01-21T23:07:47.444Z,26.30
2019-01-21T23:10:15.101Z,24.50
2019-01-21T23:12:43.080Z,24.83
2019-01-21T23:15:11.357Z,23.43
2019-01-21T23:17:38.993Z,24.17
2019-01-21T23:20:06.985Z,22.07
2019-01-21T23:22:34.954Z,23.90
2019-01-21T23:25:02.921Z,22.20
2019-01-21T23:27:30.565Z,22.13
2019-01-21T23:29:58.572Z,23.73
2019-01-21T23:32:26.215Z,23.23
2019-01-21T23:34:53.872Z,21.87
2019-01-21T23:37:21.851Z,23.50
2019-01-21T23:39:49.820Z,21.93
2019-01-21T23:42:17.793Z,23.23
2019-01-21T23:44:45.759Z,22.70
2019-01-21T23:47:13.749Z,24.43
2019-01-21T23:49:41.394Z,24.07
2019-01-21T23:52:09.098Z,23.13
2019-01-21T23:54:36.754Z,23.87
2019-01-21T23:57:04.706Z,22.53
2019-01-21T23:59:32.351Z,21.53
